sensor_id;sensor_type;location;lat;lon;timestamp;P1;durP1;ratioP1;P2;durP2;ratioP2
54853;SDS011;40747;49.480;8.658;2024-03-02T00:00:21;5.53;;;4.18;;
54853;SDS011;40747;49.480;8.658;2024-03-02T00:02:48;6.20;;;3.97;;
54853;SDS011;40747;49.480;8.658;2024-03-02T00:05:19;7.97;;;3.80;;
54853;SDS011;40747;49.480;8.658;2024-03-02T00:07:53;9.98;;;4.03;;
54853;SDS011;40747;49.480;8.658;2024-03-02T00:10:31;8.55;;;5.65;;
54853;SDS011;40747;49.480;8.658;2024-03-02T00:13:06;6.78;;;3.67;;
54853;SDS011;40747;49.480;8.658;2024-03-02T00:15:40;12.80;;;5.13;;
54853;SDS011;40747;49.480;8.658;2024-03-02T00:18:17;11.23;;;3.40;;
54853;SDS011;40747;49.480;8.658;2024-03-02T00:20:50;9.63;;;4.68;;
54853;SDS011;40747;49.480;8.658;2024-03-02T00:23:20;5.33;;;3.43;;
54853;SDS011;40747;49.480;8.658;2024-03-02T00:25:48;7.63;;;5.10;;
54853;SDS011;40747;49.480;8.658;2024-03-02T00:33:33;4.95;;;2.70;;
54853;SDS011;40747;49.480;8.658;2024-03-02T00:36:04;7.72;;;4.65;;
54853;SDS011;40747;49.480;8.658;2024-03-02T00:38:32;4.00;;;2.95;;
54853;SDS011;40747;49.480;8.658;2024-03-02T00:40:59;4.47;;;2.08;;
54853;SDS011;40747;49.480;8.658;2024-03-02T00:46:07;5.38;;;3.45;;
54853;SDS011;40747;49.480;8.658;2024-03-02T00:48:34;6.15;;;2.97;;
54853;SDS011;40747;49.480;8.658;2024-03-02T00:51:01;9.88;;;4.30;;
54853;SDS011;40747;49.480;8.658;2024-03-02T00:53:31;8.82;;;5.00;;
54853;SDS011;40747;49.480;8.658;2024-03-02T00:55:58;8.88;;;5.30;;
54853;SDS011;40747;49.480;8.658;2024-03-02T00:58:27;5.07;;;2.42;;
54853;SDS011;40747;49.480;8.658;2024-03-02T01:00:53;5.38;;;3.53;;
54853;SDS011;40747;49.480;8.658;2024-03-02T01:03:20;7.00;;;4.80;;
54853;SDS011;40747;49.480;8.658;2024-03-02T01:05:46;4.25;;;3.70;;
54853;SDS011;40747;49.480;8.658;2024-03-02T01:08:12;7.53;;;5.20;;
54853;SDS011;40747;49.480;8.658;2024-03-02T01:10:38;6.72;;;4.43;;
54853;SDS011;40747;49.480;8.658;2024-03-02T01:13:08;6.45;;;2.67;;
54853;SDS011;40747;49.480;8.658;2024-03-02T01:15:34;4.15;;;3.00;;
54853;SDS011;40747;49.480;8.658;2024-03-02T01:18:00;7.88;;;4.82;;
54853;SDS011;40747;49.480;8.658;2024-03-02T01:20:25;5.70;;;3.67;;
54853;SDS011;40747;49.480;8.658;2024-03-02T01:22:52;8.70;;;4.88;;
54853;SDS011;40747;49.480;8.658;2024-03-02T01:25:19;8.63;;;4.65;;
54853;SDS011;40747;49.480;8.658;2024-03-02T01:27:45;6.60;;;3.20;;
54853;SDS011;40747;49.480;8.658;2024-03-02T01:30:12;5.30;;;3.45;;
54853;SDS011;40747;49.480;8.658;2024-03-02T01:32:38;5.10;;;3.10;;
54853;SDS011;40747;49.480;8.658;2024-03-02T01:35:04;4.75;;;3.72;;
54853;SDS011;40747;49.480;8.658;2024-03-02T01:37:32;5.78;;;2.90;;
54853;SDS011;40747;49.480;8.658;2024-03-02T01:39:59;4.13;;;3.05;;
54853;SDS011;40747;49.480;8.658;2024-03-02T01:42:24;7.03;;;3.42;;
54853;SDS011;40747;49.480;8.658;2024-03-02T01:44:51;3.30;;;2.97;;
54853;SDS011;40747;49.480;8.658;2024-03-02T01:47:17;12.38;;;2.92;;
54853;SDS011;40747;49.480;8.658;2024-03-02T01:49:44;5.63;;;3.55;;
54853;SDS011;40747;49.480;8.658;2024-03-02T01:52:10;9.25;;;4.25;;
54853;SDS011;40747;49.480;8.658;2024-03-02T01:54:36;5.28;;;3.83;;
54853;SDS011;40747;49.480;8.658;2024-03-02T01:57:03;7.13;;;3.95;;
54853;SDS011;40747;49.480;8.658;2024-03-02T01:59:29;9.82;;;3.80;;
54853;SDS011;40747;49.480;8.658;2024-03-02T02:01:55;3.42;;;2.20;;
54853;SDS011;40747;49.480;8.658;2024-03-02T02:04:22;7.25;;;3.05;;
54853;SDS011;40747;49.480;8.658;2024-03-02T02:06:52;5.82;;;3.78;;
54853;SDS011;40747;49.480;8.658;2024-03-02T02:09:17;4.80;;;2.97;;
54853;SDS011;40747;49.480;8.658;2024-03-02T02:11:43;3.63;;;2.63;;
54853;SDS011;40747;49.480;8.658;2024-03-02T02:14:10;4.28;;;3.03;;
54853;SDS011;40747;49.480;8.658;2024-03-02T02:16:36;6.35;;;3.58;;
54853;SDS011;40747;49.480;8.658;2024-03-02T02:19:03;3.15;;;2.42;;
54853;SDS011;40747;49.480;8.658;2024-03-02T02:21:30;3.80;;;2.60;;
54853;SDS011;40747;49.480;8.658;2024-03-02T02:23:56;8.13;;;1.88;;
54853;SDS011;40747;49.480;8.658;2024-03-02T02:26:23;5.22;;;2.10;;
54853;SDS011;40747;49.480;8.658;2024-03-02T02:28:50;2.65;;;2.05;;
54853;SDS011;40747;49.480;8.658;2024-03-02T02:31:15;5.75;;;3.65;;
54853;SDS011;40747;49.480;8.658;2024-03-02T02:33:42;4.13;;;3.05;;
54853;SDS011;40747;49.480;8.658;2024-03-02T02:36:08;4.07;;;3.38;;
54853;SDS011;40747;49.480;8.658;2024-03-02T02:38:38;5.05;;;2.25;;
54853;SDS011;40747;49.480;8.658;2024-03-02T02:41:08;7.10;;;3.67;;
54853;SDS011;40747;49.480;8.658;2024-03-02T02:43:35;8.13;;;3.10;;
54853;SDS011;40747;49.480;8.658;2024-03-02T02:46:01;5.13;;;3.42;;
54853;SDS011;40747;49.480;8.658;2024-03-02T02:48:29;5.63;;;2.85;;
54853;SDS011;40747;49.480;8.658;2024-03-02T02:50:55;5.30;;;1.85;;
54853;SDS011;40747;49.480;8.658;2024-03-02T02:53:21;3.80;;;2.28;;
54853;SDS011;40747;49.480;8.658;2024-03-02T02:55:48;5.72;;;4.50;;
54853;SDS011;40747;49.480;8.658;2024-03-02T02:58:14;5.60;;;3.25;;
54853;SDS011;40747;49.480;8.658;2024-03-02T03:00:41;2.80;;;2.20;;
54853;SDS011;40747;49.480;8.658;2024-03-02T03:03:07;3.13;;;2.00;;
54853;SDS011;40747;49.480;8.658;2024-03-02T03:05:33;3.35;;;2.22;;
54853;SDS011;40747;49.480;8.658;2024-03-02T03:07:59;3.40;;;2.22;;
54853;SDS011;40747;49.480;8.658;2024-03-02T03:10:26;3.45;;;2.33;;
54853;SDS011;40747;49.480;8.658;2024-03-02T03:12:53;6.38;;;3.00;;
54853;SDS011;40747;49.480;8.658;2024-03-02T03:15:21;1.75;;;1.65;;
54853;SDS011;40747;49.480;8.658;2024-03-02T03:17:47;3.35;;;1.80;;
54853;SDS011;40747;49.480;8.658;2024-03-02T03:20:14;7.93;;;3.08;;
54853;SDS011;40747;49.480;8.658;2024-03-02T03:22:40;4.43;;;2.83;;
54853;SDS011;40747;49.480;8.658;2024-03-02T03:25:06;5.70;;;3.70;;
54853;SDS011;40747;49.480;8.658;2024-03-02T03:27:35;5.72;;;3.25;;
54853;SDS011;40747;49.480;8.658;2024-03-02T03:30:01;8.15;;;2.25;;
54853;SDS011;40747;49.480;8.658;2024-03-02T03:32:28;5.32;;;1.63;;
54853;SDS011;40747;49.480;8.658;2024-03-02T03:34:54;2.55;;;1.98;;
54853;SDS011;40747;49.480;8.658;2024-03-02T03:37:21;3.03;;;1.73;;
54853;SDS011;40747;49.480;8.658;2024-03-02T03:39:47;3.80;;;2.05;;
54853;SDS011;40747;49.480;8.658;2024-03-02T03:42:13;3.42;;;1.92;;
54853;SDS011;40747;49.480;8.658;2024-03-02T03:44:39;3.55;;;2.85;;
54853;SDS011;40747;49.480;8.658;2024-03-02T03:47:06;1.95;;;1.80;;
54853;SDS011;40747;49.480;8.658;2024-03-02T03:49:32;4.18;;;2.78;;
54853;SDS011;40747;49.480;8.658;2024-03-02T03:51:58;2.88;;;2.50;;
54853;SDS011;40747;49.480;8.658;2024-03-02T03:54:24;2.13;;;1.80;;
54853;SDS011;40747;49.480;8.658;2024-03-02T03:56:51;3.47;;;2.78;;
54853;SDS011;40747;49.480;8.658;2024-03-02T03:59:17;2.85;;;2.00;;
54853;SDS011;40747;49.480;8.658;2024-03-02T04:01:43;2.03;;;1.77;;
54853;SDS011;40747;49.480;8.658;2024-03-02T04:04:10;5.53;;;2.72;;
54853;SDS011;40747;49.480;8.658;2024-03-02T04:06:36;1.88;;;1.63;;
54853;SDS011;40747;49.480;8.658;2024-03-02T04:09:02;2.78;;;2.33;;
54853;SDS011;40747;49.480;8.658;2024-03-02T04:11:29;7.63;;;2.65;;
54853;SDS011;40747;49.480;8.658;2024-03-02T04:13:55;3.78;;;2.08;;
54853;SDS011;40747;49.480;8.658;2024-03-02T04:16:21;2.80;;;2.25;;
54853;SDS011;40747;49.480;8.658;2024-03-02T04:18:46;2.85;;;2.13;;
54853;SDS011;40747;49.480;8.658;2024-03-02T04:21:13;4.82;;;2.63;;
54853;SDS011;40747;49.480;8.658;2024-03-02T04:23:39;4.75;;;2.65;;
54853;SDS011;40747;49.480;8.658;2024-03-02T04:26:06;4.45;;;2.78;;
54853;SDS011;40747;49.480;8.658;2024-03-02T04:28:31;4.63;;;2.25;;
54853;SDS011;40747;49.480;8.658;2024-03-02T04:30:58;3.28;;;2.60;;
54853;SDS011;40747;49.480;8.658;2024-03-02T04:33:24;4.00;;;3.28;;
54853;SDS011;40747;49.480;8.658;2024-03-02T04:35:50;4.90;;;3.20;;
54853;SDS011;40747;49.480;8.658;2024-03-02T04:38:17;4.45;;;2.10;;
54853;SDS011;40747;49.480;8.658;2024-03-02T04:40:42;3.22;;;2.05;;
54853;SDS011;40747;49.480;8.658;2024-03-02T04:43:09;3.65;;;2.47;;
54853;SDS011;40747;49.480;8.658;2024-03-02T04:45:37;6.57;;;4.57;;
54853;SDS011;40747;49.480;8.658;2024-03-02T04:48:04;3.20;;;2.25;;
54853;SDS011;40747;49.480;8.658;2024-03-02T04:50:31;5.20;;;2.35;;
54853;SDS011;40747;49.480;8.658;2024-03-02T04:52:57;7.35;;;3.05;;
54853;SDS011;40747;49.480;8.658;2024-03-02T04:55:24;4.95;;;3.17;;
54853;SDS011;40747;49.480;8.658;2024-03-02T04:57:53;5.35;;;3.13;;
54853;SDS011;40747;49.480;8.658;2024-03-02T05:00:22;7.32;;;3.05;;
54853;SDS011;40747;49.480;8.658;2024-03-02T05:02:48;3.55;;;2.55;;
54853;SDS011;40747;49.480;8.658;2024-03-02T05:05:14;4.10;;;2.42;;
54853;SDS011;40747;49.480;8.658;2024-03-02T05:07:40;5.40;;;2.38;;
54853;SDS011;40747;49.480;8.658;2024-03-02T05:10:09;3.47;;;2.05;;
54853;SDS011;40747;49.480;8.658;2024-03-02T05:12:37;5.13;;;2.53;;
54853;SDS011;40747;49.480;8.658;2024-03-02T05:15:10;2.37;;;1.83;;
54853;SDS011;40747;49.480;8.658;2024-03-02T05:17:37;3.05;;;2.22;;
54853;SDS011;40747;49.480;8.658;2024-03-02T05:20:05;4.32;;;2.70;;
54853;SDS011;40747;49.480;8.658;2024-03-02T05:22:35;6.18;;;2.92;;
54853;SDS011;40747;49.480;8.658;2024-03-02T05:25:06;2.85;;;1.75;;
54853;SDS011;40747;49.480;8.658;2024-03-02T05:27:32;3.20;;;2.85;;
54853;SDS011;40747;49.480;8.658;2024-03-02T05:29:59;6.15;;;3.20;;
54853;SDS011;40747;49.480;8.658;2024-03-02T05:32:25;4.45;;;3.28;;
54853;SDS011;40747;49.480;8.658;2024-03-02T05:34:51;5.15;;;2.88;;
54853;SDS011;40747;49.480;8.658;2024-03-02T05:37:18;3.80;;;2.55;;
54853;SDS011;40747;49.480;8.658;2024-03-02T05:39:45;9.68;;;3.70;;
54853;SDS011;40747;49.480;8.658;2024-03-02T05:42:11;4.10;;;3.00;;
54853;SDS011;40747;49.480;8.658;2024-03-02T05:44:38;6.05;;;2.47;;
54853;SDS011;40747;49.480;8.658;2024-03-02T05:47:04;4.55;;;3.05;;
54853;SDS011;40747;49.480;8.658;2024-03-02T05:49:34;4.10;;;3.17;;
54853;SDS011;40747;49.480;8.658;2024-03-02T05:52:00;4.88;;;3.08;;
54853;SDS011;40747;49.480;8.658;2024-03-02T05:54:26;3.42;;;1.98;;
54853;SDS011;40747;49.480;8.658;2024-03-02T05:56:52;4.50;;;2.97;;
54853;SDS011;40747;49.480;8.658;2024-03-02T05:59:19;4.32;;;2.10;;
54853;SDS011;40747;49.480;8.658;2024-03-02T06:01:45;4.47;;;2.22;;
54853;SDS011;40747;49.480;8.658;2024-03-02T06:04:12;4.18;;;1.65;;
54853;SDS011;40747;49.480;8.658;2024-03-02T06:06:39;8.52;;;4.18;;
54853;SDS011;40747;49.480;8.658;2024-03-02T06:09:05;5.82;;;2.40;;
54853;SDS011;40747;49.480;8.658;2024-03-02T06:11:38;7.15;;;3.67;;
54853;SDS011;40747;49.480;8.658;2024-03-02T06:14:06;5.47;;;2.88;;
54853;SDS011;40747;49.480;8.658;2024-03-02T06:16:33;5.57;;;2.85;;
54853;SDS011;40747;49.480;8.658;2024-03-02T06:19:00;4.07;;;2.78;;
54853;SDS011;40747;49.480;8.658;2024-03-02T06:21:26;6.72;;;4.15;;
54853;SDS011;40747;49.480;8.658;2024-03-02T06:23:53;2.30;;;2.10;;
54853;SDS011;40747;49.480;8.658;2024-03-02T06:26:20;5.35;;;3.10;;
54853;SDS011;40747;49.480;8.658;2024-03-02T06:28:46;6.00;;;3.15;;
54853;SDS011;40747;49.480;8.658;2024-03-02T06:31:13;4.90;;;3.05;;
54853;SDS011;40747;49.480;8.658;2024-03-02T06:33:39;8.75;;;3.38;;
54853;SDS011;40747;49.480;8.658;2024-03-02T06:36:07;6.60;;;3.95;;
54853;SDS011;40747;49.480;8.658;2024-03-02T06:38:37;5.53;;;2.95;;
54853;SDS011;40747;49.480;8.658;2024-03-02T06:41:05;7.15;;;4.20;;
54853;SDS011;40747;49.480;8.658;2024-03-02T06:43:32;10.57;;;5.53;;
54853;SDS011;40747;49.480;8.658;2024-03-02T06:46:00;11.80;;;6.50;;
54853;SDS011;40747;49.480;8.658;2024-03-02T06:48:28;8.50;;;5.20;;
54853;SDS011;40747;49.480;8.658;2024-03-02T06:50:55;12.63;;;6.10;;
54853;SDS011;40747;49.480;8.658;2024-03-02T06:53:21;14.45;;;7.55;;
54853;SDS011;40747;49.480;8.658;2024-03-02T06:55:48;11.15;;;7.18;;
54853;SDS011;40747;49.480;8.658;2024-03-02T06:58:14;14.90;;;8.38;;
54853;SDS011;40747;49.480;8.658;2024-03-02T07:00:44;14.85;;;7.68;;
54853;SDS011;40747;49.480;8.658;2024-03-02T07:03:10;12.15;;;7.63;;
54853;SDS011;40747;49.480;8.658;2024-03-02T07:05:37;19.67;;;9.13;;
54853;SDS011;40747;49.480;8.658;2024-03-02T07:08:03;20.08;;;10.55;;
54853;SDS011;40747;49.480;8.658;2024-03-02T07:10:31;15.25;;;9.10;;
54853;SDS011;40747;49.480;8.658;2024-03-02T07:12:57;11.45;;;6.18;;
54853;SDS011;40747;49.480;8.658;2024-03-02T07:15:24;15.85;;;7.88;;
54853;SDS011;40747;49.480;8.658;2024-03-02T07:18:08;15.18;;;6.20;;
54853;SDS011;40747;49.480;8.658;2024-03-02T07:20:34;16.67;;;7.50;;
54853;SDS011;40747;49.480;8.658;2024-03-02T07:23:00;12.68;;;6.47;;
54853;SDS011;40747;49.480;8.658;2024-03-02T07:25:26;7.70;;;4.78;;
54853;SDS011;40747;49.480;8.658;2024-03-02T07:27:53;11.65;;;5.50;;
54853;SDS011;40747;49.480;8.658;2024-03-02T07:30:19;6.80;;;4.50;;
54853;SDS011;40747;49.480;8.658;2024-03-02T07:32:44;11.48;;;6.25;;
54853;SDS011;40747;49.480;8.658;2024-03-02T07:35:13;14.15;;;6.53;;
54853;SDS011;40747;49.480;8.658;2024-03-02T07:37:40;10.57;;;5.50;;
54853;SDS011;40747;49.480;8.658;2024-03-02T07:40:07;11.75;;;5.78;;
54853;SDS011;40747;49.480;8.658;2024-03-02T07:42:40;11.05;;;5.53;;
54853;SDS011;40747;49.480;8.658;2024-03-02T07:45:06;10.98;;;5.47;;
54853;SDS011;40747;49.480;8.658;2024-03-02T07:47:34;7.55;;;3.88;;
54853;SDS011;40747;49.480;8.658;2024-03-02T07:50:00;10.93;;;5.75;;
54853;SDS011;40747;49.480;8.658;2024-03-02T07:52:25;16.58;;;8.70;;
54853;SDS011;40747;49.480;8.658;2024-03-02T07:54:51;14.73;;;6.82;;
54853;SDS011;40747;49.480;8.658;2024-03-02T07:57:16;14.48;;;8.95;;
54853;SDS011;40747;49.480;8.658;2024-03-02T07:59:41;19.75;;;10.20;;
54853;SDS011;40747;49.480;8.658;2024-03-02T08:02:07;19.35;;;9.02;;
54853;SDS011;40747;49.480;8.658;2024-03-02T08:04:33;14.98;;;8.13;;
54853;SDS011;40747;49.480;8.658;2024-03-02T08:06:58;19.60;;;10.43;;
54853;SDS011;40747;49.480;8.658;2024-03-02T08:09:24;20.13;;;11.10;;
54853;SDS011;40747;49.480;8.658;2024-03-02T08:11:49;11.25;;;6.30;;
54853;SDS011;40747;49.480;8.658;2024-03-02T08:14:14;18.80;;;10.55;;
54853;SDS011;40747;49.480;8.658;2024-03-02T08:16:40;18.80;;;10.07;;
54853;SDS011;40747;49.480;8.658;2024-03-02T08:19:06;20.27;;;9.48;;
54853;SDS011;40747;49.480;8.658;2024-03-02T08:21:31;13.00;;;7.60;;
54853;SDS011;40747;49.480;8.658;2024-03-02T08:24:00;16.65;;;7.68;;
54853;SDS011;40747;49.480;8.658;2024-03-02T08:26:25;9.18;;;5.95;;
54853;SDS011;40747;49.480;8.658;2024-03-02T08:28:50;9.13;;;5.75;;
54853;SDS011;40747;49.480;8.658;2024-03-02T08:31:16;16.02;;;9.00;;
54853;SDS011;40747;49.480;8.658;2024-03-02T08:33:41;11.02;;;6.53;;
54853;SDS011;40747;49.480;8.658;2024-03-02T08:36:07;17.33;;;9.45;;
54853;SDS011;40747;49.480;8.658;2024-03-02T08:38:34;6.43;;;4.70;;
54853;SDS011;40747;49.480;8.658;2024-03-02T08:41:00;11.35;;;5.30;;
54853;SDS011;40747;49.480;8.658;2024-03-02T08:43:25;12.65;;;6.00;;
54853;SDS011;40747;49.480;8.658;2024-03-02T08:45:51;7.15;;;4.90;;
54853;SDS011;40747;49.480;8.658;2024-03-02T08:48:16;12.15;;;6.38;;
54853;SDS011;40747;49.480;8.658;2024-03-02T08:50:41;9.68;;;5.50;;
54853;SDS011;40747;49.480;8.658;2024-03-02T08:53:06;6.32;;;5.65;;
54853;SDS011;40747;49.480;8.658;2024-03-02T08:55:32;9.82;;;6.07;;
54853;SDS011;40747;49.480;8.658;2024-03-02T08:57:57;8.48;;;5.53;;
54853;SDS011;40747;49.480;8.658;2024-03-02T09:00:23;9.88;;;5.20;;
54853;SDS011;40747;49.480;8.658;2024-03-02T09:02:49;9.38;;;5.22;;
54853;SDS011;40747;49.480;8.658;2024-03-02T09:05:14;11.23;;;5.65;;
54853;SDS011;40747;49.480;8.658;2024-03-02T09:07:40;9.00;;;4.70;;
54853;SDS011;40747;49.480;8.658;2024-03-02T09:10:05;8.43;;;5.10;;
54853;SDS011;40747;49.480;8.658;2024-03-02T09:12:31;9.52;;;5.45;;
54853;SDS011;40747;49.480;8.658;2024-03-02T09:14:57;7.97;;;4.60;;
54853;SDS011;40747;49.480;8.658;2024-03-02T09:17:23;8.75;;;5.35;;
54853;SDS011;40747;49.480;8.658;2024-03-02T09:19:48;7.50;;;4.80;;
54853;SDS011;40747;49.480;8.658;2024-03-02T09:22:17;8.88;;;4.72;;
54853;SDS011;40747;49.480;8.658;2024-03-02T09:24:42;7.35;;;4.35;;
54853;SDS011;40747;49.480;8.658;2024-03-02T09:27:07;8.38;;;4.90;;
54853;SDS011;40747;49.480;8.658;2024-03-02T09:29:33;9.38;;;5.07;;
54853;SDS011;40747;49.480;8.658;2024-03-02T09:31:58;7.40;;;4.47;;
54853;SDS011;40747;49.480;8.658;2024-03-02T09:34:23;6.75;;;4.35;;
54853;SDS011;40747;49.480;8.658;2024-03-02T09:36:49;5.82;;;3.38;;
54853;SDS011;40747;49.480;8.658;2024-03-02T09:39:16;5.03;;;3.58;;
54853;SDS011;40747;49.480;8.658;2024-03-02T09:41:42;7.68;;;4.07;;
54853;SDS011;40747;49.480;8.658;2024-03-02T09:44:08;7.43;;;4.13;;
54853;SDS011;40747;49.480;8.658;2024-03-02T09:46:34;5.65;;;3.72;;
54853;SDS011;40747;49.480;8.658;2024-03-02T09:49:01;8.45;;;3.58;;
54853;SDS011;40747;49.480;8.658;2024-03-02T09:51:27;4.68;;;3.22;;
54853;SDS011;40747;49.480;8.658;2024-03-02T09:53:54;7.80;;;4.30;;
54853;SDS011;40747;49.480;8.658;2024-03-02T09:56:21;8.02;;;4.35;;
54853;SDS011;40747;49.480;8.658;2024-03-02T09:58:47;11.82;;;5.07;;
54853;SDS011;40747;49.480;8.658;2024-03-02T10:01:12;8.20;;;4.20;;
54853;SDS011;40747;49.480;8.658;2024-03-02T10:03:37;6.72;;;3.42;;
54853;SDS011;40747;49.480;8.658;2024-03-02T10:06:23;6.60;;;3.95;;
54853;SDS011;40747;49.480;8.658;2024-03-02T10:08:50;7.78;;;4.10;;
54853;SDS011;40747;49.480;8.658;2024-03-02T10:11:26;5.85;;;3.55;;
54853;SDS011;40747;49.480;8.658;2024-03-02T10:14:14;7.65;;;3.78;;
54853;SDS011;40747;49.480;8.658;2024-03-02T10:16:40;7.20;;;3.95;;
54853;SDS011;40747;49.480;8.658;2024-03-02T10:19:16;6.93;;;3.85;;
54853;SDS011;40747;49.480;8.658;2024-03-02T10:21:48;5.28;;;3.13;;
54853;SDS011;40747;49.480;8.658;2024-03-02T10:24:17;7.57;;;4.07;;
54853;SDS011;40747;49.480;8.658;2024-03-02T10:26:46;8.60;;;4.53;;
54853;SDS011;40747;49.480;8.658;2024-03-02T10:29:12;9.00;;;4.00;;
54853;SDS011;40747;49.480;8.658;2024-03-02T10:31:38;7.93;;;4.88;;
54853;SDS011;40747;49.480;8.658;2024-03-02T10:34:04;6.05;;;3.80;;
54853;SDS011;40747;49.480;8.658;2024-03-02T10:36:30;7.45;;;4.13;;
54853;SDS011;40747;49.480;8.658;2024-03-02T10:38:57;6.15;;;4.07;;
54853;SDS011;40747;49.480;8.658;2024-03-02T10:41:24;11.85;;;4.28;;
54853;SDS011;40747;49.480;8.658;2024-03-02T10:43:54;10.88;;;4.43;;
54853;SDS011;40747;49.480;8.658;2024-03-02T10:46:26;6.35;;;3.08;;
54853;SDS011;40747;49.480;8.658;2024-03-02T10:48:54;6.95;;;3.20;;
54853;SDS011;40747;49.480;8.658;2024-03-02T10:51:20;5.22;;;3.35;;
54853;SDS011;40747;49.480;8.658;2024-03-02T10:53:46;6.75;;;3.30;;
54853;SDS011;40747;49.480;8.658;2024-03-02T10:56:12;4.55;;;2.95;;
54853;SDS011;40747;49.480;8.658;2024-03-02T10:58:47;7.05;;;3.47;;
54853;SDS011;40747;49.480;8.658;2024-03-02T11:01:16;4.15;;;3.08;;
54853;SDS011;40747;49.480;8.658;2024-03-02T11:03:42;5.57;;;2.75;;
54853;SDS011;40747;49.480;8.658;2024-03-02T11:06:09;6.30;;;2.95;;
54853;SDS011;40747;49.480;8.658;2024-03-02T11:08:38;3.33;;;2.22;;
54853;SDS011;40747;49.480;8.658;2024-03-02T11:11:13;2.97;;;1.67;;
54853;SDS011;40747;49.480;8.658;2024-03-02T11:13:40;3.67;;;1.70;;
54853;SDS011;40747;49.480;8.658;2024-03-02T11:16:33;2.97;;;1.23;;
54853;SDS011;40747;49.480;8.658;2024-03-02T11:19:01;5.18;;;1.67;;
54853;SDS011;40747;49.480;8.658;2024-03-02T11:21:35;3.00;;;1.83;;
54853;SDS011;40747;49.480;8.658;2024-03-02T11:27:03;2.13;;;1.05;;
54853;SDS011;40747;49.480;8.658;2024-03-02T11:32:04;1.42;;;0.77;;
54853;SDS011;40747;49.480;8.658;2024-03-02T11:34:50;1.63;;;1.05;;
54853;SDS011;40747;49.480;8.658;2024-03-02T11:37:19;2.90;;;1.50;;
54853;SDS011;40747;49.480;8.658;2024-03-02T11:39:50;2.28;;;0.73;;
54853;SDS011;40747;49.480;8.658;2024-03-02T11:42:16;0.82;;;0.40;;
54853;SDS011;40747;49.480;8.658;2024-03-02T11:44:43;1.75;;;0.30;;
54853;SDS011;40747;49.480;8.658;2024-03-02T11:47:12;0.52;;;0.30;;
54853;SDS011;40747;49.480;8.658;2024-03-02T11:49:40;0.50;;;0.40;;
54853;SDS011;40747;49.480;8.658;2024-03-02T11:52:08;0.88;;;0.47;;
54853;SDS011;40747;49.480;8.658;2024-03-02T11:54:34;1.30;;;0.70;;
54853;SDS011;40747;49.480;8.658;2024-03-02T11:57:04;1.05;;;0.50;;
54853;SDS011;40747;49.480;8.658;2024-03-02T11:59:31;1.08;;;0.60;;
54853;SDS011;40747;49.480;8.658;2024-03-02T12:01:57;0.85;;;0.50;;
54853;SDS011;40747;49.480;8.658;2024-03-02T12:04:23;0.60;;;0.52;;
54853;SDS011;40747;49.480;8.658;2024-03-02T12:06:55;2.08;;;0.40;;
54853;SDS011;40747;49.480;8.658;2024-03-02T12:09:25;2.00;;;0.70;;
54853;SDS011;40747;49.480;8.658;2024-03-02T12:12:01;1.15;;;0.70;;
54853;SDS011;40747;49.480;8.658;2024-03-02T12:14:30;1.17;;;0.63;;
54853;SDS011;40747;49.480;8.658;2024-03-02T12:16:56;0.45;;;0.40;;
54853;SDS011;40747;49.480;8.658;2024-03-02T12:19:23;1.83;;;0.93;;
54853;SDS011;40747;49.480;8.658;2024-03-02T12:21:49;1.23;;;0.68;;
54853;SDS011;40747;49.480;8.658;2024-03-02T12:24:14;1.83;;;0.95;;
54853;SDS011;40747;49.480;8.658;2024-03-02T12:26:40;0.80;;;0.52;;
54853;SDS011;40747;49.480;8.658;2024-03-02T12:29:06;0.98;;;0.63;;
54853;SDS011;40747;49.480;8.658;2024-03-02T12:31:31;0.77;;;0.50;;
54853;SDS011;40747;49.480;8.658;2024-03-02T12:33:57;1.40;;;0.88;;
54853;SDS011;40747;49.480;8.658;2024-03-02T12:36:23;2.95;;;0.85;;
54853;SDS011;40747;49.480;8.658;2024-03-02T12:38:48;2.20;;;0.95;;
54853;SDS011;40747;49.480;8.658;2024-03-02T12:41:18;1.92;;;1.05;;
54853;SDS011;40747;49.480;8.658;2024-03-02T12:43:43;0.73;;;0.52;;
54853;SDS011;40747;49.480;8.658;2024-03-02T12:46:08;0.43;;;0.40;;
54853;SDS011;40747;49.480;8.658;2024-03-02T12:48:34;1.27;;;0.82;;
54853;SDS011;40747;49.480;8.658;2024-03-02T12:51:01;1.63;;;0.88;;
54853;SDS011;40747;49.480;8.658;2024-03-02T12:53:26;1.23;;;0.63;;
54853;SDS011;40747;49.480;8.658;2024-03-02T12:55:52;0.93;;;0.60;;
54853;SDS011;40747;49.480;8.658;2024-03-02T12:58:21;1.08;;;0.63;;
54853;SDS011;40747;49.480;8.658;2024-03-02T13:00:47;1.60;;;0.75;;
54853;SDS011;40747;49.480;8.658;2024-03-02T13:03:12;0.88;;;0.40;;
54853;SDS011;40747;49.480;8.658;2024-03-02T13:05:38;0.57;;;0.52;;
54853;SDS011;40747;49.480;8.658;2024-03-02T13:08:04;2.10;;;0.73;;
54853;SDS011;40747;49.480;8.658;2024-03-02T13:10:32;0.40;;;0.15;;
54853;SDS011;40747;49.480;8.658;2024-03-02T13:12:58;0.93;;;0.30;;
54853;SDS011;40747;49.480;8.658;2024-03-02T13:15:23;2.00;;;0.30;;
54853;SDS011;40747;49.480;8.658;2024-03-02T13:17:48;0.90;;;0.40;;
54853;SDS011;40747;49.480;8.658;2024-03-02T13:20:15;0.65;;;0.20;;
54853;SDS011;40747;49.480;8.658;2024-03-02T13:22:43;0.95;;;0.38;;
54853;SDS011;40747;49.480;8.658;2024-03-02T13:25:08;1.50;;;0.40;;
54853;SDS011;40747;49.480;8.658;2024-03-02T13:27:35;0.70;;;0.35;;
54853;SDS011;40747;49.480;8.658;2024-03-02T13:30:01;0.65;;;0.22;;
54853;SDS011;40747;49.480;8.658;2024-03-02T13:32:28;0.57;;;0.40;;
54853;SDS011;40747;49.480;8.658;2024-03-02T13:34:53;0.52;;;0.35;;
54853;SDS011;40747;49.480;8.658;2024-03-02T13:37:19;0.43;;;0.32;;
54853;SDS011;40747;49.480;8.658;2024-03-02T13:39:45;1.00;;;0.60;;
54853;SDS011;40747;49.480;8.658;2024-03-02T13:42:11;0.35;;;0.32;;
54853;SDS011;40747;49.480;8.658;2024-03-02T13:44:38;2.15;;;0.50;;
54853;SDS011;40747;49.480;8.658;2024-03-02T13:47:04;0.82;;;0.40;;
54853;SDS011;40747;49.480;8.658;2024-03-02T13:49:29;2.08;;;0.57;;
54853;SDS011;40747;49.480;8.658;2024-03-02T13:52:00;2.80;;;0.45;;
54853;SDS011;40747;49.480;8.658;2024-03-02T13:54:28;1.02;;;0.40;;
54853;SDS011;40747;49.480;8.658;2024-03-02T13:56:53;1.00;;;0.65;;
54853;SDS011;40747;49.480;8.658;2024-03-02T13:59:18;0.82;;;0.68;;
54853;SDS011;40747;49.480;8.658;2024-03-02T14:01:44;1.80;;;0.50;;
54853;SDS011;40747;49.480;8.658;2024-03-02T14:04:09;0.73;;;0.30;;
54853;SDS011;40747;49.480;8.658;2024-03-02T14:06:35;0.40;;;0.30;;
54853;SDS011;40747;49.480;8.658;2024-03-02T14:09:00;0.55;;;0.38;;
54853;SDS011;40747;49.480;8.658;2024-03-02T14:11:25;0.32;;;0.32;;
54853;SDS011;40747;49.480;8.658;2024-03-02T14:13:50;2.33;;;0.40;;
54853;SDS011;40747;49.480;8.658;2024-03-02T14:16:19;0.10;;;0.10;;
54853;SDS011;40747;49.480;8.658;2024-03-02T14:18:44;0.22;;;0.20;;
54853;SDS011;40747;49.480;8.658;2024-03-02T14:21:09;0.22;;;0.22;;
54853;SDS011;40747;49.480;8.658;2024-03-02T14:23:35;0.30;;;0.30;;
54853;SDS011;40747;49.480;8.658;2024-03-02T14:26:00;0.35;;;0.10;;
54853;SDS011;40747;49.480;8.658;2024-03-02T14:28:25;1.45;;;0.70;;
54853;SDS011;40747;49.480;8.658;2024-03-02T14:30:50;0.20;;;0.20;;
54853;SDS011;40747;49.480;8.658;2024-03-02T14:33:16;0.40;;;0.20;;
54853;SDS011;40747;49.480;8.658;2024-03-02T14:35:42;1.55;;;0.40;;
54853;SDS011;40747;49.480;8.658;2024-03-02T14:38:07;0.98;;;0.52;;
54853;SDS011;40747;49.480;8.658;2024-03-02T14:40:32;1.38;;;0.52;;
54853;SDS011;40747;49.480;8.658;2024-03-02T14:42:58;0.60;;;0.40;;
54853;SDS011;40747;49.480;8.658;2024-03-02T14:45:23;1.00;;;0.47;;
54853;SDS011;40747;49.480;8.658;2024-03-02T14:47:49;0.57;;;0.30;;
54853;SDS011;40747;49.480;8.658;2024-03-02T14:50:15;0.65;;;0.52;;
54853;SDS011;40747;49.480;8.658;2024-03-02T14:52:41;2.45;;;0.38;;
54853;SDS011;40747;49.480;8.658;2024-03-02T14:55:07;0.98;;;0.50;;
54853;SDS011;40747;49.480;8.658;2024-03-02T14:57:32;0.80;;;0.30;;